Un Karadeniz — TCTD3 — position and weather

sailwx.info

Track history (hours):
 
Tides and Currents Weather Stations Pressure Air Temp Water Temp Dewpoint Dewpoint Depression Visibility Wind Speed Wind Dir Waves Ship Positions

Un Karadeniz

Last reported at 2016-Sep-28 21:28 UTC. Time now 2016-Sep-28 22:14 UTC.
Position N 45°39' E 013°45'.

Length 193 m; draft 7 m.

Type: Ship (hazmat cat A). MMSI: 271002571.

Date/timePositionNaut miles runAvg speedWind from/ knotsBaromVisibWave heightAir tempDewpointWater temp
2016-Sep-28 21:28N 45°39' E 013°45'0 0.0
2016-Sep-28 19:33N 45°39' E 013°45'0 0.0
2016-Sep-28 16:32N 45°39' E 013°45'0 0.0
2016-Sep-28 15:32N 45°39' E 013°45'0 0.0
2016-Sep-28 12:33N 45°39' E 013°45'5513.8
2016-Sep-28 08:33N 44°44' E 013°35'64115.6
2016-Sep-26 15:33N 37°54' E 024°31'25417.6
2016-Sep-26 01:11N 40°53' E 028°22'41 5.3
2016-Sep-25 17:33N 40°51' E 029°16'0 0.0
2016-Sep-25 16:33N 40°51' E 029°16'0 0.0
2016-Sep-25 15:33N 40°51' E 029°16'0 0.0
2016-Sep-25 14:34N 40°51' E 029°16'0 0.0
2016-Sep-25 12:34N 40°51' E 029°16'0 0.0
2016-Sep-25 11:34N 40°51' E 029°16'0 0.0
2016-Sep-25 10:33N 40°51' E 029°16'0 0.0
2016-Sep-25 09:34N 40°51' E 029°16'0 0.0
2016-Sep-25 07:33N 40°51' E 029°16'0 0.0
2016-Sep-25 04:33N 40°51' E 029°16'0 0.0
2016-Sep-25 00:33N 40°51' E 029°16'0 0.0
2016-Sep-24 22:33N 40°51' E 029°16'0 0.0
2016-Sep-24 21:33N 40°51' E 029°16'0 0.0
2016-Sep-24 19:34N 40°51' E 029°16'0 0.0
2016-Sep-24 18:33N 40°51' E 029°16'0 0.0
2016-Sep-24 17:33N 40°51' E 029°16'0 0.0
2016-Sep-24 16:33N 40°51' E 029°16'0 0.0
2016-Sep-24 14:33N 40°51' E 029°16'0 0.0
2016-Sep-24 12:33N 40°51' E 029°16'0 0.0
2016-Sep-24 10:33N 40°51' E 029°16'0 0.0
2016-Sep-24 09:33N 40°51' E 029°16'3 0.5
2016-Sep-24 03:31N 40°49' E 029°14'0 0.1
2016-Sep-24 02:31N 40°49' E 029°14'0 0.0
2016-Sep-24 01:30N 40°49' E 029°14'0 0.0
2016-Sep-24 00:30N 40°49' E 029°14'0 0.0
2016-Sep-23 19:28N 40°49' E 029°14'0 0.0
2016-Sep-23 17:15N 40°49' E 029°14'0 0.0
2016-Sep-23 16:33N 40°49' E 029°14'0 0.0
2016-Sep-23 15:26N 40°49' E 029°14'0 0.0
2016-Sep-23 13:31N 40°49' E 029°14'0 0.0
2016-Sep-23 09:28N 40°49' E 029°14'0 0.0
2016-Sep-23 06:33N 40°49' E 029°14'0 0.0
2016-Sep-23 04:26N 40°49' E 029°14'0 0.1
2016-Sep-23 03:31N 40°49' E 029°14'0 0.0
2016-Sep-23 02:31N 40°49' E 029°14'0 0.0
2016-Sep-23 01:30N 40°49' E 029°14'0 0.1
2016-Sep-23 00:30N 40°49' E 029°14'0 0.0
2016-Sep-22 23:30N 40°49' E 029°14'0 0.0
2016-Sep-22 20:16N 40°49' E 029°14'0 0.0
2016-Sep-22 12:31N 40°49' E 029°14'0 0.0
2016-Sep-22 04:33N 40°49' E 029°14'0 0.0
2016-Sep-22 03:33N 40°49' E 029°14'0 0.0
2016-Sep-22 00:32N 40°49' E 029°14'0 0.0
2016-Sep-21 23:31N 40°49' E 029°14'0 0.0
2016-Sep-21 22:31N 40°49' E 029°14'0 0.0
2016-Sep-21 19:29N 40°49' E 029°14'0 0.0
2016-Sep-21 16:28N 40°49' E 029°14'0 0.0
2016-Sep-21 09:31N 40°49' E 029°14'0 0.0
2016-Sep-21 08:31N 40°49' E 029°14'3 0.9
2016-Sep-21 05:32N 40°51' E 029°16'0 0.0
2016-Sep-21 03:32N 40°51' E 029°16'0 0.0
2016-Sep-21 02:31N 40°51' E 029°16'8 0.9
2016-Sep-20 17:33N 40°47' E 029°07'26411.8
2016-Sep-19 19:07N 38°01' E 024°42'713.5
2016-Sep-19 18:34N 37°54' E 024°37'2913.0
2016-Sep-19 16:20N 37°29' E 024°18'2916.0
2016-Sep-19 14:33N 37°07' E 023°55'2019.7
2016-Sep-19 13:33N 36°52' E 023°39'2019.2
2016-Sep-19 12:30N 36°37' E 023°24'  
Track history (hours):
 
Tides and Currents Weather Stations Pressure Air Temp Water Temp Dewpoint Dewpoint Depression Visibility Wind Speed Wind Dir Waves Ship Positions

Un Karadeniz

Last reported at 2016-Sep-28 21:28 UTC. Time now 2016-Sep-28 22:14 UTC.
Position N 45°39' E 013°45'.

Length 193 m; draft 7 m.

Type: Ship (hazmat cat A). MMSI: 271002571.

Date/timePositionNaut miles runAvg speedWind from/ knotsBaromVisibWave heightAir tempDewpointWater temp
2016-Sep-28 21:28N 45°39' E 013°45'0 0.0
2016-Sep-28 19:33N 45°39' E 013°45'0 0.0
2016-Sep-28 16:32N 45°39' E 013°45'0 0.0
2016-Sep-28 15:32N 45°39' E 013°45'0 0.0
2016-Sep-28 12:33N 45°39' E 013°45'5513.8
2016-Sep-28 08:33N 44°44' E 013°35'64115.6
2016-Sep-26 15:33N 37°54' E 024°31'25417.6
2016-Sep-26 01:11N 40°53' E 028°22'41 5.3
2016-Sep-25 17:33N 40°51' E 029°16'0 0.0
2016-Sep-25 16:33N 40°51' E 029°16'0 0.0
2016-Sep-25 15:33N 40°51' E 029°16'0 0.0
2016-Sep-25 14:34N 40°51' E 029°16'0 0.0
2016-Sep-25 12:34N 40°51' E 029°16'0 0.0
2016-Sep-25 11:34N 40°51' E 029°16'0 0.0
2016-Sep-25 10:33N 40°51' E 029°16'0 0.0
2016-Sep-25 09:34N 40°51' E 029°16'0 0.0
2016-Sep-25 07:33N 40°51' E 029°16'0 0.0
2016-Sep-25 04:33N 40°51' E 029°16'0 0.0
2016-Sep-25 00:33N 40°51' E 029°16'0 0.0
2016-Sep-24 22:33N 40°51' E 029°16'0 0.0
2016-Sep-24 21:33N 40°51' E 029°16'0 0.0
2016-Sep-24 19:34N 40°51' E 029°16'0 0.0
2016-Sep-24 18:33N 40°51' E 029°16'0 0.0
2016-Sep-24 17:33N 40°51' E 029°16'0 0.0
2016-Sep-24 16:33N 40°51' E 029°16'0 0.0
2016-Sep-24 14:33N 40°51' E 029°16'0 0.0
2016-Sep-24 12:33N 40°51' E 029°16'0 0.0
2016-Sep-24 10:33N 40°51' E 029°16'0 0.0
2016-Sep-24 09:33N 40°51' E 029°16'3 0.5
2016-Sep-24 03:31N 40°49' E 029°14'0 0.1
2016-Sep-24 02:31N 40°49' E 029°14'0 0.0
2016-Sep-24 01:30N 40°49' E 029°14'0 0.0
2016-Sep-24 00:30N 40°49' E 029°14'0 0.0
2016-Sep-23 19:28N 40°49' E 029°14'0 0.0
2016-Sep-23 17:15N 40°49' E 029°14'0 0.0
2016-Sep-23 16:33N 40°49' E 029°14'0 0.0
2016-Sep-23 15:26N 40°49' E 029°14'0 0.0
2016-Sep-23 13:31N 40°49' E 029°14'0 0.0
2016-Sep-23 09:28N 40°49' E 029°14'0 0.0
2016-Sep-23 06:33N 40°49' E 029°14'0 0.0
2016-Sep-23 04:26N 40°49' E 029°14'0 0.1
2016-Sep-23 03:31N 40°49' E 029°14'0 0.0
2016-Sep-23 02:31N 40°49' E 029°14'0 0.0
2016-Sep-23 01:30N 40°49' E 029°14'0 0.1
2016-Sep-23 00:30N 40°49' E 029°14'0 0.0
2016-Sep-22 23:30N 40°49' E 029°14'0 0.0
2016-Sep-22 20:16N 40°49' E 029°14'0 0.0
2016-Sep-22 12:31N 40°49' E 029°14'0 0.0
2016-Sep-22 04:33N 40°49' E 029°14'0 0.0
2016-Sep-22 03:33N 40°49' E 029°14'0 0.0
2016-Sep-22 00:32N 40°49' E 029°14'0 0.0
2016-Sep-21 23:31N 40°49' E 029°14'0 0.0
2016-Sep-21 22:31N 40°49' E 029°14'0 0.0
2016-Sep-21 19:29N 40°49' E 029°14'0 0.0
2016-Sep-21 16:28N 40°49' E 029°14'0 0.0
2016-Sep-21 09:31N 40°49' E 029°14'0 0.0
2016-Sep-21 08:31N 40°49' E 029°14'3 0.9
2016-Sep-21 05:32N 40°51' E 029°16'0 0.0
2016-Sep-21 03:32N 40°51' E 029°16'0 0.0
2016-Sep-21 02:31N 40°51' E 029°16'8 0.9
2016-Sep-20 17:33N 40°47' E 029°07'26411.8
2016-Sep-19 19:07N 38°01' E 024°42'713.5
2016-Sep-19 18:34N 37°54' E 024°37'2913.0
2016-Sep-19 16:20N 37°29' E 024°18'2916.0
2016-Sep-19 14:33N 37°07' E 023°55'2019.7
2016-Sep-19 13:33N 36°52' E 023°39'2019.2
2016-Sep-19 12:30N 36°37' E 023°24'  

Dump ship's entire track history